Time;durP1;ratioP1;P1;durP2;ratioP2;P2;SDS_P1;SDS_P2;PMS_P1;PMS_P2;Temp;Humidity;BMP_temperature;BMP_pressure;BME280_temperature;BME280_humidity;BME280_pressure;Samples;Min_cycle;Max_cycle;Signal;HPM_P1;HPM_P2
2023/10/14 00:00:46;;;;;;;13.82;5.10;;;;;;;;;;7384620;19;20009;-79
2023/10/14 00:03:27;;;;;;;14.48;5.78;;;;;;;;;;7383578;19;19999;-80
2023/10/14 00:05:52;;;;;;;10.40;5.18;;;;;;;;;;7394509;19;20010;-80
2023/10/14 00:08:17;;;;;;;13.00;5.20;;;;;;;;;;7391619;19;20006;-80
2023/10/14 00:10:44;;;;;;;14.05;5.28;;;;;;;;;;7412305;19;20082;-79
2023/10/14 00:13:11;;;;;;;12.23;5.22;;;;;;;;;;7389063;19;20491;-79
2023/10/14 00:15:39;;;;;;;15.57;5.18;;;;;;;;;;7390283;19;20122;-78
2023/10/14 00:18:06;;;;;;;14.13;5.07;;;;;;;;;;7386859;19;20003;-80
2023/10/14 00:20:35;;;;;;;13.98;4.90;;;;;;;;;;7387761;19;19994;-79
2023/10/14 00:23:01;;;;;;;13.60;5.22;;;;;;;;;;7376637;19;20002;-80
2023/10/14 00:25:26;;;;;;;13.32;5.07;;;;;;;;;;7409630;19;20023;-79
2023/10/14 00:27:52;;;;;;;10.63;4.85;;;;;;;;;;7401406;19;20002;-81
2023/10/14 00:30:20;;;;;;;12.63;4.90;;;;;;;;;;7399354;19;20020;-81
2023/10/14 00:32:45;;;;;;;16.50;5.03;;;;;;;;;;7387944;19;20046;-81
2023/10/14 00:35:11;;;;;;;17.55;4.97;;;;;;;;;;7398051;19;20004;-81
2023/10/14 00:37:37;;;;;;;13.80;5.07;;;;;;;;;;7406552;19;20002;-78
2023/10/14 00:40:12;;;;;;;15.38;5.30;;;;;;;;;;7377945;19;20002;-82
2023/10/14 00:42:41;;;;;;;15.48;5.32;;;;;;;;;;7393528;19;20007;-81
2023/10/14 00:45:09;;;;;;;12.23;5.40;;;;;;;;;;7398820;19;20082;-81
2023/10/14 00:47:40;;;;;;;11.48;4.95;;;;;;;;;;7379613;19;20031;-81
2023/10/14 00:50:26;;;;;;;12.27;5.13;;;;;;;;;;7378328;19;20073;-81
2023/10/14 00:52:57;;;;;;;11.48;5.13;;;;;;;;;;7389068;19;20446;-80
2023/10/14 00:55:41;;;;;;;12.00;4.97;;;;;;;;;;7397883;19;20010;-80
2023/10/14 00:58:06;;;;;;;13.80;5.53;;;;;;;;;;7374417;19;20014;-81
2023/10/14 01:00:37;;;;;;;14.15;5.63;;;;;;;;;;7374195;19;20007;-81
2023/10/14 01:03:09;;;;;;;16.05;5.38;;;;;;;;;;7373756;19;20487;-81
2023/10/14 01:05:36;;;;;;;10.18;4.93;;;;;;;;;;7374466;19;20042;-81
2023/10/14 01:08:03;;;;;;;16.67;5.28;;;;;;;;;;7377099;19;20010;-80
2023/10/14 01:10:29;;;;;;;15.63;5.03;;;;;;;;;;7400567;19;20071;-80
2023/10/14 01:12:56;;;;;;;10.00;4.43;;;;;;;;;;7378654;19;20006;-81
2023/10/14 01:15:22;;;;;;;10.80;4.78;;;;;;;;;;7391097;19;20031;-82
2023/10/14 01:17:48;;;;;;;13.23;4.65;;;;;;;;;;7401827;19;20002;-82
2023/10/14 01:22:40;;;;;;;13.93;5.00;;;;;;;;;;7410765;19;20007;-82
2023/10/14 01:25:12;;;;;;;14.98;5.22;;;;;;;;;;7370752;19;20006;-81
2023/10/14 01:27:42;;;;;;;14.48;4.40;;;;;;;;;;7372769;19;20121;-82
2023/10/14 01:30:11;;;;;;;21.20;4.57;;;;;;;;;;7373039;19;20019;-81
2023/10/14 01:37:56;;;;;;;11.10;5.00;;;;;;;;;;7408395;19;20006;-82
2023/10/14 01:42:56;;;;;;;10.95;5.35;;;;;;;;;;7378851;19;21470;-80
2023/10/14 01:45:22;;;;;;;11.27;5.60;;;;;;;;;;7379879;19;19998;-79
2023/10/14 01:47:49;;;;;;;15.27;5.63;;;;;;;;;;7384621;19;20565;-82
2023/10/14 01:50:15;;;;;;;13.45;6.43;;;;;;;;;;7379118;19;20369;-81
2023/10/14 01:52:41;;;;;;;11.63;5.68;;;;;;;;;;7397399;19;20086;-82
2023/10/14 01:55:08;;;;;;;12.10;5.72;;;;;;;;;;7373951;19;20006;-80
2023/10/14 01:57:36;;;;;;;11.15;5.15;;;;;;;;;;7377479;19;20018;-81
2023/10/14 02:00:12;;;;;;;11.00;5.75;;;;;;;;;;7377656;19;20010;-80
2023/10/14 02:02:39;;;;;;;10.63;5.40;;;;;;;;;;7378545;19;20009;-82
2023/10/14 02:05:05;;;;;;;8.40;5.20;;;;;;;;;;7377354;19;20014;-82
2023/10/14 02:07:30;;;;;;;15.55;5.50;;;;;;;;;;7398544;19;20013;-81
2023/10/14 02:09:56;;;;;;;13.68;5.10;;;;;;;;;;7379767;19;20496;-80
2023/10/14 02:12:24;;;;;;;16.23;5.90;;;;;;;;;;7401299;19;20002;-79
2023/10/14 02:14:57;;;;;;;14.45;6.07;;;;;;;;;;7396631;19;19999;-80
2023/10/14 02:17:24;;;;;;;10.27;5.38;;;;;;;;;;7381849;19;20010;-80
2023/10/14 02:19:51;;;;;;;13.73;5.50;;;;;;;;;;7401540;19;19998;-80
2023/10/14 02:22:21;;;;;;;14.45;5.53;;;;;;;;;;7376657;19;20010;-81
2023/10/14 02:24:48;;;;;;;18.77;5.18;;;;;;;;;;7377792;19;20013;-80
2023/10/14 02:27:14;;;;;;;15.25;5.00;;;;;;;;;;7376275;19;20044;-81
2023/10/14 02:29:47;;;;;;;16.15;5.22;;;;;;;;;;7378466;19;20436;-81
2023/10/14 02:32:13;;;;;;;14.52;4.65;;;;;;;;;;7378387;19;20009;-80
2023/10/14 02:34:45;;;;;;;15.57;4.78;;;;;;;;;;7397201;19;19999;-81
2023/10/14 02:37:13;;;;;;;12.38;5.60;;;;;;;;;;7377542;19;19998;-80
2023/10/14 02:39:43;;;;;;;11.32;5.03;;;;;;;;;;7376579;19;20010;-80
2023/10/14 02:42:09;;;;;;;16.90;4.93;;;;;;;;;;7375908;19;20380;-80
2023/10/14 02:44:44;;;;;;;13.75;4.35;;;;;;;;;;7377254;19;20007;-80
2023/10/14 02:47:10;;;;;;;12.50;4.25;;;;;;;;;;7375041;19;20023;-81
2023/10/14 02:49:37;;;;;;;11.40;4.32;;;;;;;;;;7398563;19;20002;-82
2023/10/14 02:52:17;;;;;;;12.90;5.03;;;;;;;;;;7376859;19;20002;-81
2023/10/14 02:54:45;;;;;;;15.65;4.20;;;;;;;;;;7376048;19;20392;-80
2023/10/14 02:59:46;;;;;;;14.07;4.57;;;;;;;;;;7375172;19;20033;-80
2023/10/14 03:02:18;;;;;;;14.38;4.70;;;;;;;;;;7373759;19;20015;-80
2023/10/14 03:04:55;;;;;;;9.80;4.55;;;;;;;;;;7397719;19;20006;-80
2023/10/14 03:07:33;;;;;;;15.43;4.28;;;;;;;;;;7382182;19;20003;-80
2023/10/14 03:10:11;;;;;;;14.90;4.43;;;;;;;;;;7381805;19;20003;-80
2023/10/14 03:12:39;;;;;;;12.95;4.38;;;;;;;;;;7393794;19;20002;-81
2023/10/14 03:15:20;;;;;;;9.68;4.07;;;;;;;;;;7388114;19;20003;-80
2023/10/14 03:18:04;;;;;;;14.77;4.20;;;;;;;;;;7383649;19;20753;-81
2023/10/14 03:20:36;;;;;;;12.93;4.15;;;;;;;;;;7381854;19;20006;-80
2023/10/14 03:23:23;;;;;;;10.27;3.63;;;;;;;;;;7380547;19;20011;-80
2023/10/14 03:25:51;;;;;;;16.50;3.30;;;;;;;;;;7401411;19;20023;-81
2023/10/14 03:28:19;;;;;;;15.65;3.30;;;;;;;;;;7372877;19;20015;-75
2023/10/14 03:30:56;;;;;;;11.32;3.40;;;;;;;;;;7365948;19;20856;-75
2023/10/14 03:33:23;;;;;;;10.00;2.90;;;;;;;;;;7364507;19;20472;-75
2023/10/14 03:36:05;;;;;;;8.32;2.70;;;;;;;;;;7366407;19;20003;-75
2023/10/14 03:41:10;;;;;;;7.73;2.20;;;;;;;;;;7366971;19;20464;-76
2023/10/14 03:43:54;;;;;;;11.52;2.90;;;;;;;;;;7386071;19;20002;-74
2023/10/14 03:46:24;;;;;;;6.57;2.10;;;;;;;;;;7366407;19;20357;-74
2023/10/14 03:48:56;;;;;;;6.70;2.25;;;;;;;;;;7371533;19;19999;-75
2023/10/14 03:51:25;;;;;;;6.35;2.50;;;;;;;;;;7375933;19;20063;-75
2023/10/14 03:53:57;;;;;;;9.18;2.35;;;;;;;;;;7365961;19;20384;-75
2023/10/14 03:56:25;;;;;;;6.53;1.70;;;;;;;;;;7366357;19;20503;-75
2023/10/14 03:58:55;;;;;;;5.72;1.90;;;;;;;;;;7387208;19;20363;-75
2023/10/14 04:01:23;;;;;;;6.23;1.90;;;;;;;;;;7365973;19;20007;-75
2023/10/14 04:03:52;;;;;;;5.30;1.80;;;;;;;;;;7364587;19;20015;-75
2023/10/14 04:06:19;;;;;;;5.78;1.63;;;;;;;;;;7366010;19;20014;-75
2023/10/14 04:08:48;;;;;;;7.70;1.90;;;;;;;;;;7367056;19;20010;-75
2023/10/14 04:11:25;;;;;;;4.57;1.67;;;;;;;;;;7379281;19;20380;-75
2023/10/14 04:14:13;;;;;;;8.75;1.85;;;;;;;;;;7395562;19;20033;-75
2023/10/14 04:19:37;;;;;;;6.00;1.73;;;;;;;;;;7365947;19;20029;-75
2023/10/14 04:22:25;;;;;;;3.92;1.60;;;;;;;;;;7367207;19;20006;-76
2023/10/14 04:25:09;;;;;;;5.85;1.65;;;;;;;;;;7365400;19;20014;-76
2023/10/14 04:30:31;;;;;;;5.15;1.42;;;;;;;;;;7364939;19;20007;-75
2023/10/14 04:35:31;;;;;;;4.80;1.60;;;;;;;;;;7365417;19;20037;-75
2023/10/14 04:37:57;;;;;;;5.57;1.50;;;;;;;;;;7364279;19;20006;-75
2023/10/14 04:46:12;;;;;;;5.15;1.70;;;;;;;;;;7370484;19;20369;-75
2023/10/14 04:51:06;;;;;;;4.63;1.50;;;;;;;;;;7369056;19;20026;-76
2023/10/14 04:53:31;;;;;;;4.75;1.45;;;;;;;;;;7363564;19;20062;-75
2023/10/14 04:56:01;;;;;;;7.25;1.50;;;;;;;;;;7373006;19;20002;-76
2023/10/14 04:58:26;;;;;;;6.13;1.65;;;;;;;;;;7394776;19;20014;-75
2023/10/14 05:00:52;;;;;;;7.38;1.60;;;;;;;;;;7366695;19;20187;-75
2023/10/14 05:03:20;;;;;;;3.03;1.23;;;;;;;;;;7361903;19;20011;-76
2023/10/14 05:05:52;;;;;;;5.32;1.40;;;;;;;;;;7364241;19;20015;-76
2023/10/14 05:08:23;;;;;;;4.05;1.30;;;;;;;;;;7363561;19;20005;-76
2023/10/14 05:10:54;;;;;;;6.47;1.50;;;;;;;;;;7392199;19;20084;-75
2023/10/14 05:13:33;;;;;;;4.90;1.52;;;;;;;;;;7367426;19;20007;-75
2023/10/14 05:16:21;;;;;;;5.13;2.05;;;;;;;;;;7370024;19;20441;-76
2023/10/14 05:21:36;;;;;;;8.02;1.50;;;;;;;;;;7366955;19;20695;-73
2023/10/14 05:24:06;;;;;;;4.05;1.38;;;;;;;;;;7367684;19;20022;-73
2023/10/14 05:26:35;;;;;;;5.60;1.50;;;;;;;;;;7369806;19;20014;-73
2023/10/14 05:29:11;;;;;;;3.80;1.40;;;;;;;;;;7369651;19;20007;-74
2023/10/14 05:31:37;;;;;;;4.15;1.17;;;;;;;;;;7387308;19;20018;-73
2023/10/14 05:34:04;;;;;;;3.67;1.40;;;;;;;;;;7367567;19;20888;-74
2023/10/14 05:36:32;;;;;;;5.97;1.40;;;;;;;;;;7369459;19;20018;-73
2023/10/14 05:38:57;;;;;;;4.45;1.30;;;;;;;;;;7370224;19;20009;-73
2023/10/14 05:41:22;;;;;;;3.05;0.88;;;;;;;;;;7371365;19;20010;-73
2023/10/14 05:43:51;;;;;;;10.75;1.50;;;;;;;;;;7388661;19;20027;-73
2023/10/14 05:46:16;;;;;;;3.50;1.10;;;;;;;;;;7371875;19;20038;-78
2023/10/14 05:48:42;;;;;;;3.42;1.10;;;;;;;;;;7378732;19;20006;-79
2023/10/14 05:51:07;;;;;;;3.20;1.20;;;;;;;;;;7375798;19;20475;-77
2023/10/14 05:53:33;;;;;;;1.85;0.90;;;;;;;;;;7370083;19;20029;-78
2023/10/14 05:56:09;;;;;;;2.25;0.90;;;;;;;;;;7372700;19;20002;-78
2023/10/14 05:58:37;;;;;;;1.38;1.05;;;;;;;;;;7396045;19;20005;-78
2023/10/14 06:01:11;;;;;;;2.55;0.82;;;;;;;;;;7373683;19;20002;-78
2023/10/14 06:03:38;;;;;;;2.00;1.10;;;;;;;;;;7370590;19;20629;-79
2023/10/14 06:06:09;;;;;;;1.70;1.05;;;;;;;;;;7372248;19;20835;-79
2023/10/14 06:08:35;;;;;;;2.45;1.10;;;;;;;;;;7375490;19;20010;-79
2023/10/14 06:11:00;;;;;;;5.18;1.30;;;;;;;;;;7383112;19;20013;-79
2023/10/14 06:13:27;;;;;;;1.35;1.20;;;;;;;;;;7399488;19;20006;-78
2023/10/14 06:15:53;;;;;;;1.90;0.95;;;;;;;;;;7375434;19;20006;-79
2023/10/14 06:18:18;;;;;;;2.75;1.30;;;;;;;;;;7383436;19;20009;-79
2023/10/14 06:20:49;;;;;;;1.55;1.30;;;;;;;;;;7394534;19;20449;-80
2023/10/14 06:23:14;;;;;;;5.78;1.63;;;;;;;;;;7372593;19;20010;-79
2023/10/14 06:25:40;;;;;;;1.88;1.33;;;;;;;;;;7395994;19;20361;-79
2023/10/14 06:28:07;;;;;;;3.13;1.40;;;;;;;;;;7375510;19;20006;-80
2023/10/14 06:30:33;;;;;;;4.30;1.50;;;;;;;;;;7387203;19;19995;-80
2023/10/14 06:33:04;;;;;;;1.90;1.58;;;;;;;;;;7407998;19;20006;-80
2023/10/14 06:35:34;;;;;;;4.43;2.00;;;;;;;;;;7395320;19;20010;-79
2023/10/14 06:38:00;;;;;;;2.63;1.20;;;;;;;;;;7390367;19;20026;-79
2023/10/14 06:40:39;;;;;;;2.97;1.48;;;;;;;;;;7406465;19;20030;-79
2023/10/14 06:43:12;;;;;;;2.35;1.23;;;;;;;;;;7361855;19;20492;-79
2023/10/14 06:45:37;;;;;;;1.50;1.40;;;;;;;;;;7375492;19;20046;-80
2023/10/14 06:48:05;;;;;;;2.20;1.30;;;;;;;;;;7375146;19;20396;-80
2023/10/14 06:50:42;;;;;;;3.55;1.35;;;;;;;;;;7377136;19;20077;-79
2023/10/14 06:53:07;;;;;;;3.67;1.10;;;;;;;;;;7378232;19;20815;-79
2023/10/14 06:55:39;;;;;;;1.83;1.30;;;;;;;;;;7405594;19;20016;-79
2023/10/14 06:58:07;;;;;;;1.98;1.15;;;;;;;;;;7375941;19;20035;-79
2023/10/14 07:00:33;;;;;;;2.05;1.42;;;;;;;;;;7374973;19;20009;-79
2023/10/14 07:02:59;;;;;;;2.50;1.10;;;;;;;;;;7373223;19;20065;-78
2023/10/14 07:05:28;;;;;;;2.85;1.20;;;;;;;;;;7373153;19;20492;-80
2023/10/14 07:07:55;;;;;;;3.97;1.65;;;;;;;;;;7372791;19;20010;-79
2023/10/14 07:10:27;;;;;;;3.15;1.30;;;;;;;;;;7394193;19;20023;-79
2023/10/14 07:12:57;;;;;;;5.65;1.42;;;;;;;;;;7372788;19;20464;-79
2023/10/14 07:15:22;;;;;;;1.35;1.20;;;;;;;;;;7373230;19;20074;-78
2023/10/14 07:17:48;;;;;;;3.92;1.30;;;;;;;;;;7374175;19;20006;-78
2023/10/14 07:20:14;;;;;;;2.08;0.90;;;;;;;;;;7373388;19;20027;-79
2023/10/14 07:22:42;;;;;;;2.88;1.38;;;;;;;;;;7395908;19;20014;-80
2023/10/14 07:25:11;;;;;;;2.92;1.17;;;;;;;;;;7374741;19;20015;-80
2023/10/14 07:27:37;;;;;;;3.33;1.42;;;;;;;;;;7376823;19;20002;-80
2023/10/14 07:30:13;;;;;;;5.35;1.50;;;;;;;;;;7373677;19;20010;-79
2023/10/14 07:32:48;;;;;;;4.43;1.58;;;;;;;;;;7368997;19;20342;-78
2023/10/14 07:35:18;;;;;;;5.90;1.65;;;;;;;;;;7376240;19;20029;-78
2023/10/14 07:37:45;;;;;;;4.93;1.52;;;;;;;;;;7397451;19;20375;-78
2023/10/14 07:40:22;;;;;;;5.72;1.67;;;;;;;;;;7374331;19;20006;-79
2023/10/14 07:42:52;;;;;;;5.53;1.70;;;;;;;;;;7372796;19;20013;-79
2023/10/14 07:45:18;;;;;;;7.80;2.22;;;;;;;;;;7377625;19;20458;-80
2023/10/14 07:47:43;;;;;;;4.28;1.60;;;;;;;;;;7375760;19;20010;-79
2023/10/14 07:50:09;;;;;;;5.47;2.00;;;;;;;;;;7376019;19;20463;-78
2023/10/14 07:52:36;;;;;;;7.72;1.90;;;;;;;;;;7394559;19;20006;-78
2023/10/14 07:55:04;;;;;;;4.47;1.63;;;;;;;;;;7376822;19;20029;-78
2023/10/14 07:57:49;;;;;;;6.20;1.80;;;;;;;;;;7378381;19;19998;-79
2023/10/14 08:00:15;;;;;;;5.32;1.80;;;;;;;;;;7373594;19;20013;-78
2023/10/14 08:02:41;;;;;;;7.43;2.00;;;;;;;;;;7374392;19;20010;-78
2023/10/14 08:05:08;;;;;;;8.00;2.08;;;;;;;;;;7375362;19;20031;-78
2023/10/14 08:07:40;;;;;;;8.25;2.70;;;;;;;;;;7397412;19;20003;-78
2023/10/14 08:10:16;;;;;;;8.63;2.63;;;;;;;;;;7373330;19;20030;-79
2023/10/14 08:12:43;;;;;;;8.70;2.42;;;;;;;;;;7371551;19;20010;-77
2023/10/14 08:15:09;;;;;;;8.38;2.08;;;;;;;;;;7370700;19;20025;-79
2023/10/14 08:17:34;;;;;;;8.13;2.17;;;;;;;;;;7379869;19;20015;-79
2023/10/14 08:19:59;;;;;;;13.52;2.95;;;;;;;;;;7373407;19;20349;-78
2023/10/14 08:22:24;;;;;;;8.00;2.40;;;;;;;;;;7394544;19;20097;-77
2023/10/14 08:24:50;;;;;;;9.10;2.45;;;;;;;;;;7373808;19;20515;-78
2023/10/14 08:27:16;;;;;;;8.35;2.40;;;;;;;;;;7370889;19;20073;-78
2023/10/14 08:29:41;;;;;;;9.82;3.67;;;;;;;;;;7370238;19;20003;-77
2023/10/14 08:32:07;;;;;;;16.15;5.80;;;;;;;;;;7373134;19;20006;-79
2023/10/14 08:34:32;;;;;;;11.57;2.90;;;;;;;;;;7394572;19;20799;-78
2023/10/14 08:36:57;;;;;;;8.73;2.72;;;;;;;;;;7373691;19;20428;-78
2023/10/14 08:39:23;;;;;;;7.40;2.00;;;;;;;;;;7374398;19;20363;-78
2023/10/14 08:41:54;;;;;;;9.60;2.20;;;;;;;;;;7371639;19;20011;-78
2023/10/14 08:44:26;;;;;;;9.40;2.30;;;;;;;;;;7371957;19;20011;-78
2023/10/14 08:46:51;;;;;;;10.32;2.40;;;;;;;;;;7398593;19;20002;-77
2023/10/14 08:49:23;;;;;;;10.73;2.30;;;;;;;;;;7373416;19;20012;-77
2023/10/14 08:51:49;;;;;;;13.65;4.20;;;;;;;;;;7368477;19;20029;-77
2023/10/14 08:54:18;;;;;;;7.88;2.85;;;;;;;;;;7371058;19;20019;-76
2023/10/14 08:56:45;;;;;;;13.13;3.65;;;;;;;;;;7371864;19;20081;-76
2023/10/14 08:59:12;;;;;;;11.02;2.30;;;;;;;;;;7372763;19;20023;-76
2023/10/14 09:01:38;;;;;;;9.15;2.17;;;;;;;;;;7394358;19;20089;-76
2023/10/14 09:04:03;;;;;;;10.20;2.60;;;;;;;;;;7371091;19;20048;-75
2023/10/14 09:06:29;;;;;;;12.13;2.55;;;;;;;;;;7371342;19;20006;-75
2023/10/14 09:08:54;;;;;;;9.20;2.25;;;;;;;;;;7371905;19;20003;-75
2023/10/14 09:11:33;;;;;;;9.63;2.50;;;;;;;;;;7372513;19;20386;-75
2023/10/14 09:14:03;;;;;;;8.80;2.42;;;;;;;;;;7367908;19;20002;-76
2023/10/14 09:16:30;;;;;;;15.25;6.82;;;;;;;;;;7394879;19;20396;-76
2023/10/14 09:18:58;;;;;;;11.10;3.30;;;;;;;;;;7372025;19;20494;-75
2023/10/14 09:21:23;;;;;;;10.13;2.63;;;;;;;;;;7373976;19;20044;-76
2023/10/14 09:23:50;;;;;;;9.98;2.72;;;;;;;;;;7369995;19;20022;-76
2023/10/14 09:26:17;;;;;;;8.07;2.13;;;;;;;;;;7370178;19;20426;-77
2023/10/14 09:28:45;;;;;;;9.30;2.40;;;;;;;;;;7394155;19;20455;-74
2023/10/14 09:31:12;;;;;;;6.50;2.13;;;;;;;;;;7372098;19;20010;-75
2023/10/14 09:33:41;;;;;;;7.80;2.10;;;;;;;;;;7371714;19;20014;-75
2023/10/14 09:36:11;;;;;;;8.82;2.67;;;;;;;;;;7372554;19;20477;-76
2023/10/14 09:38:39;;;;;;;10.10;2.75;;;;;;;;;;7373356;19;20034;-74
2023/10/14 09:41:07;;;;;;;9.50;2.40;;;;;;;;;;7372891;19;20787;-75
2023/10/14 09:43:34;;;;;;;9.23;2.20;;;;;;;;;;7388497;19;19994;-75
2023/10/14 09:46:09;;;;;;;8.38;2.30;;;;;;;;;;7370348;19;20768;-75
2023/10/14 09:48:35;;;;;;;8.85;2.88;;;;;;;;;;7372301;19;20003;-74
2023/10/14 09:51:02;;;;;;;7.88;2.33;;;;;;;;;;7372001;19;20002;-74
2023/10/14 09:53:31;;;;;;;6.88;2.15;;;;;;;;;;7369675;19;20003;-76
2023/10/14 09:56:04;;;;;;;8.77;2.20;;;;;;;;;;7370855;19;20030;-75
2023/10/14 09:58:31;;;;;;;9.77;2.35;;;;;;;;;;7395432;19;19998;-76
2023/10/14 10:01:00;;;;;;;6.72;2.20;;;;;;;;;;7380347;19;20006;-75
2023/10/14 10:03:27;;;;;;;4.78;1.90;;;;;;;;;;7383462;19;20076;-76
2023/10/14 10:06:00;;;;;;;6.22;2.10;;;;;;;;;;7381955;19;20014;-75
2023/10/14 10:08:56;;;;;;;9.73;2.78;;;;;;;;;;7382509;19;20006;-76
2023/10/14 10:11:26;;;;;;;6.97;2.35;;;;;;;;;;7379139;19;20002;-75
2023/10/14 10:13:53;;;;;;;7.13;2.40;;;;;;;;;;7389845;19;19999;-81
2023/10/14 10:16:20;;;;;;;10.10;3.05;;;;;;;;;;7371551;19;20003;-75
2023/10/14 10:18:56;;;;;;;7.75;2.20;;;;;;;;;;7370672;19;20023;-75
2023/10/14 10:21:28;;;;;;;12.85;2.88;;;;;;;;;;7372559;19;20469;-75
2023/10/14 10:23:57;;;;;;;9.32;2.15;;;;;;;;;;7368898;19;20007;-75
2023/10/14 10:26:23;;;;;;;8.07;2.30;;;;;;;;;;7372949;19;20052;-76
2023/10/14 10:28:49;;;;;;;5.88;1.88;;;;;;;;;;7393535;19;20008;-74
2023/10/14 10:31:20;;;;;;;7.22;2.10;;;;;;;;;;7370219;19;20006;-76
2023/10/14 10:33:51;;;;;;;6.43;2.30;;;;;;;;;;7368558;19;20371;-75
2023/10/14 10:36:21;;;;;;;6.22;1.80;;;;;;;;;;7372401;19;20082;-74
2023/10/14 10:38:47;;;;;;;4.15;1.77;;;;;;;;;;7370572;19;20028;-75
2023/10/14 10:41:24;;;;;;;7.25;2.10;;;;;;;;;;7369897;19;20007;-75
2023/10/14 10:43:51;;;;;;;9.38;1.98;;;;;;;;;;7386852;19;20353;-75
2023/10/14 10:46:45;;;;;;;6.53;1.80;;;;;;;;;;7368600;19;20003;-74
2023/10/14 10:49:14;;;;;;;4.85;1.83;;;;;;;;;;7368287;19;20022;-76
2023/10/14 10:51:50;;;;;;;5.97;2.00;;;;;;;;;;7369038;19;20010;-74
2023/10/14 10:54:16;;;;;;;7.40;2.20;;;;;;;;;;7367964;19;20374;-74
2023/10/14 10:56:43;;;;;;;7.70;1.90;;;;;;;;;;7368618;19;20017;-75
2023/10/14 10:59:08;;;;;;;9.70;2.33;;;;;;;;;;7368303;19;20010;-73
2023/10/14 11:01:34;;;;;;;5.70;1.95;;;;;;;;;;7391113;19;20006;-73
2023/10/14 11:04:08;;;;;;;5.75;1.63;;;;;;;;;;7366426;19;20038;-75
2023/10/14 11:06:34;;;;;;;7.03;2.00;;;;;;;;;;7366154;19;20015;-74
2023/10/14 11:09:00;;;;;;;6.63;2.03;;;;;;;;;;7368200;19;20011;-74
2023/10/14 11:11:33;;;;;;;6.70;2.05;;;;;;;;;;7369451;19;20031;-75
2023/10/14 11:14:00;;;;;;;8.50;2.13;;;;;;;;;;7365326;19;20025;-74
2023/10/14 11:16:29;;;;;;;9.55;1.92;;;;;;;;;;7390241;19;20812;-73
2023/10/14 11:18:54;;;;;;;7.32;1.95;;;;;;;;;;7368226;19;20058;-75
2023/10/14 11:21:20;;;;;;;6.60;1.65;;;;;;;;;;7369170;19;20547;-73
2023/10/14 11:23:47;;;;;;;7.78;1.90;;;;;;;;;;7361013;19;20010;-75
2023/10/14 11:26:16;;;;;;;5.80;1.58;;;;;;;;;;7369130;19;20047;-76
2023/10/14 11:28:45;;;;;;;7.35;1.67;;;;;;;;;;7391071;19;19998;-75
2023/10/14 11:31:12;;;;;;;8.60;2.30;;;;;;;;;;7370031;19;20680;-75
2023/10/14 11:33:37;;;;;;;6.65;1.73;;;;;;;;;;7368070;19;20066;-75
2023/10/14 11:36:03;;;;;;;4.85;1.50;;;;;;;;;;7368523;19;20011;-75
2023/10/14 11:38:30;;;;;;;4.72;1.55;;;;;;;;;;7368456;19;20504;-75
2023/10/14 11:40:58;;;;;;;8.30;1.95;;;;;;;;;;7368564;19;19998;-74
2023/10/14 11:43:23;;;;;;;4.50;1.52;;;;;;;;;;7388447;19;20125;-75
2023/10/14 11:45:51;;;;;;;5.82;1.73;;;;;;;;;;7365773;19;20038;-75
2023/10/14 11:48:22;;;;;;;6.72;1.77;;;;;;;;;;7369236;19;20010;-75
2023/10/14 11:50:50;;;;;;;5.47;2.00;;;;;;;;;;7368134;19;20373;-75
2023/10/14 11:53:22;;;;;;;8.13;1.80;;;;;;;;;;7366181;19;20010;-76
2023/10/14 11:55:48;;;;;;;5.38;2.10;;;;;;;;;;7389327;19;20030;-75
2023/10/14 11:58:13;;;;;;;5.72;2.00;;;;;;;;;;7369173;19;20011;-74
2023/10/14 12:00:41;;;;;;;5.47;1.63;;;;;;;;;;7367172;19;20085;-74
2023/10/14 12:03:06;;;;;;;8.10;1.85;;;;;;;;;;7366366;19;20151;-76
2023/10/14 12:05:39;;;;;;;5.25;1.75;;;;;;;;;;7367123;19;20006;-75
2023/10/14 12:08:08;;;;;;;7.10;1.80;;;;;;;;;;7365746;19;20100;-74
2023/10/14 12:10:36;;;;;;;6.15;1.60;;;;;;;;;;7389343;19;20408;-75
2023/10/14 12:13:03;;;;;;;3.97;1.70;;;;;;;;;;7364953;19;20705;-75
2023/10/14 12:15:34;;;;;;;9.30;1.92;;;;;;;;;;7367064;19;20044;-75
2023/10/14 12:18:00;;;;;;;6.65;1.90;;;;;;;;;;7366189;19;20016;-75
2023/10/14 12:20:26;;;;;;;10.02;1.88;;;;;;;;;;7366096;19;20006;-74
2023/10/14 12:22:51;;;;;;;6.70;2.10;;;;;;;;;;7385267;19;20002;-75
2023/10/14 12:25:17;;;;;;;6.05;2.00;;;;;;;;;;7366182;19;20564;-75
2023/10/14 12:27:43;;;;;;;7.88;2.13;;;;;;;;;;7365324;19;20010;-74
2023/10/14 12:30:28;;;;;;;6.53;2.00;;;;;;;;;;7366553;19;20010;-75
2023/10/14 12:32:54;;;;;;;6.53;2.00;;;;;;;;;;7368540;19;20038;-76
2023/10/14 12:35:27;;;;;;;5.22;1.95;;;;;;;;;;7369513;19;20011;-76
2023/10/14 12:37:54;;;;;;;6.30;1.55;;;;;;;;;;7373436;19;20006;-76
2023/10/14 12:40:24;;;;;;;5.20;1.60;;;;;;;;;;7388809;19;20492;-75
2023/10/14 12:42:49;;;;;;;5.57;1.70;;;;;;;;;;7364835;19;20044;-75
2023/10/14 12:45:23;;;;;;;4.50;1.90;;;;;;;;;;7367306;19;20260;-75
2023/10/14 12:47:49;;;;;;;3.72;1.40;;;;;;;;;;7367649;19;20014;-76
2023/10/14 12:50:19;;;;;;;5.70;1.85;;;;;;;;;;7368109;19;20013;-74
2023/10/14 12:52:49;;;;;;;4.75;1.60;;;;;;;;;;7387084;19;20022;-76
2023/10/14 12:55:22;;;;;;;7.75;2.15;;;;;;;;;;7364615;19;20015;-75
2023/10/14 12:57:47;;;;;;;5.13;1.77;;;;;;;;;;7368934;19;20002;-75
2023/10/14 13:00:25;;;;;;;5.57;1.92;;;;;;;;;;7368654;19;20042;-74
2023/10/14 13:02:53;;;;;;;9.52;1.80;;;;;;;;;;7367799;19;20002;-75
2023/10/14 13:05:20;;;;;;;6.65;1.80;;;;;;;;;;7368410;19;20417;-75
2023/10/14 13:07:47;;;;;;;8.07;1.98;;;;;;;;;;7388349;19;19999;-75
2023/10/14 13:10:18;;;;;;;7.25;1.83;;;;;;;;;;7366818;19;20726;-77
2023/10/14 13:12:53;;;;;;;6.30;1.63;;;;;;;;;;7366049;19;20386;-73
2023/10/14 13:15:31;;;;;;;8.43;1.60;;;;;;;;;;7363284;19;20009;-75
2023/10/14 13:17:59;;;;;;;6.53;1.85;;;;;;;;;;7365170;19;20010;-72
2023/10/14 13:20:28;;;;;;;7.35;1.70;;;;;;;;;;7365285;19;20011;-74
2023/10/14 13:23:07;;;;;;;5.32;1.50;;;;;;;;;;7366334;19;20014;-74
2023/10/14 13:25:36;;;;;;;7.07;1.98;;;;;;;;;;7391902;19;19995;-74
2023/10/14 13:28:02;;;;;;;7.47;2.10;;;;;;;;;;7375714;19;20126;-75
2023/10/14 13:30:29;;;;;;;5.75;1.80;;;;;;;;;;7380162;19;20020;-75
2023/10/14 13:32:56;;;;;;;6.55;1.70;;;;;;;;;;7384650;19;20021;-73
2023/10/14 13:35:23;;;;;;;7.10;1.73;;;;;;;;;;7380820;19;20380;-74
2023/10/14 13:37:49;;;;;;;7.05;1.90;;;;;;;;;;7403681;19;20018;-74
2023/10/14 13:40:21;;;;;;;6.15;1.83;;;;;;;;;;7375626;19;20010;-74
2023/10/14 13:42:50;;;;;;;3.50;1.42;;;;;;;;;;7371985;19;20436;-76
2023/10/14 13:45:17;;;;;;;8.77;2.20;;;;;;;;;;7373801;19;20357;-75
2023/10/14 13:47:43;;;;;;;6.50;1.80;;;;;;;;;;7372601;19;20014;-74
2023/10/14 13:50:20;;;;;;;6.90;1.83;;;;;;;;;;7373197;19;20103;-76
2023/10/14 13:52:51;;;;;;;6.00;1.85;;;;;;;;;;7392609;19;20002;-74
2023/10/14 13:55:18;;;;;;;5.63;1.70;;;;;;;;;;7372126;19;20356;-76
2023/10/14 13:57:46;;;;;;;5.38;1.73;;;;;;;;;;7372436;19;20089;-73
2023/10/14 14:00:19;;;;;;;5.55;1.73;;;;;;;;;;7371398;19;20040;-73
2023/10/14 14:02:47;;;;;;;8.05;1.88;;;;;;;;;;7370749;19;20006;-73
2023/10/14 14:05:14;;;;;;;8.55;2.00;;;;;;;;;;7370156;19;20020;-73
2023/10/14 14:07:39;;;;;;;5.93;1.88;;;;;;;;;;7391206;19;20065;-72
2023/10/14 14:10:05;;;;;;;5.57;1.92;;;;;;;;;;7370577;19;20011;-72
2023/10/14 14:12:32;;;;;;;7.75;1.70;;;;;;;;;;7370028;19;20676;-74
2023/10/14 14:14:57;;;;;;;7.13;1.90;;;;;;;;;;7370483;19;20023;-74
2023/10/14 14:17:25;;;;;;;5.60;1.70;;;;;;;;;;7372612;19;19999;-74
2023/10/14 14:19:51;;;;;;;6.85;1.73;;;;;;;;;;7399626;19;20006;-73
2023/10/14 14:22:18;;;;;;;5.20;1.63;;;;;;;;;;7371860;19;20006;-74
2023/10/14 14:24:45;;;;;;;4.80;1.77;;;;;;;;;;7370182;19;20492;-74
2023/10/14 14:27:11;;;;;;;10.07;2.33;;;;;;;;;;7369698;19;20002;-75
2023/10/14 14:29:36;;;;;;;8.10;2.13;;;;;;;;;;7368910;19;20026;-75
2023/10/14 14:32:05;;;;;;;6.85;1.58;;;;;;;;;;7370782;19;20023;-73
2023/10/14 14:34:31;;;;;;;7.75;1.80;;;;;;;;;;7390492;19;20007;-74
2023/10/14 14:36:57;;;;;;;8.98;2.05;;;;;;;;;;7370211;19;20015;-73
2023/10/14 14:39:22;;;;;;;7.32;1.80;;;;;;;;;;7370910;19;20018;-74
2023/10/14 14:41:50;;;;;;;7.78;1.77;;;;;;;;;;7369081;19;20014;-73
2023/10/14 14:44:16;;;;;;;7.22;2.47;;;;;;;;;;7369885;19;20472;-74
2023/10/14 14:46:42;;;;;;;5.68;2.05;;;;;;;;;;7390603;19;20082;-73
2023/10/14 14:49:12;;;;;;;6.07;1.70;;;;;;;;;;7368856;19;20031;-74
2023/10/14 14:51:37;;;;;;;9.15;2.30;;;;;;;;;;7369669;19;20110;-74
2023/10/14 14:54:05;;;;;;;8.57;2.28;;;;;;;;;;7368530;19;20870;-74
2023/10/14 14:56:31;;;;;;;4.38;1.75;;;;;;;;;;7370914;19;20078;-74
2023/10/14 14:58:58;;;;;;;9.68;2.45;;;;;;;;;;7369397;19;20378;-74
2023/10/14 15:01:29;;;;;;;8.38;2.03;;;;;;;;;;7390013;19;20093;-75
2023/10/14 15:03:54;;;;;;;9.93;2.10;;;;;;;;;;7368035;19;20158;-73
2023/10/14 15:06:21;;;;;;;7.32;1.90;;;;;;;;;;7368864;19;20007;-73
2023/10/14 15:08:47;;;;;;;6.53;1.80;;;;;;;;;;7369404;19;20471;-72
2023/10/14 15:11:13;;;;;;;7.10;1.70;;;;;;;;;;7369997;19;20007;-73
2023/10/14 15:13:40;;;;;;;7.63;1.90;;;;;;;;;;7388916;19;20502;-73
2023/10/14 15:16:05;;;;;;;6.88;1.75;;;;;;;;;;7368909;19;20687;-74
2023/10/14 15:18:32;;;;;;;5.72;1.83;;;;;;;;;;7371107;19;20077;-74
2023/10/14 15:20:57;;;;;;;7.68;1.90;;;;;;;;;;7368447;19;20010;-74
2023/10/14 15:23:23;;;;;;;10.05;2.10;;;;;;;;;;7367523;19;20487;-75